createdAt,value
2024-03-03T00:02:06.239Z,100018.88
2024-03-03T00:04:33.169Z,100009.81
2024-03-03T00:07:00.152Z,100011.19
2024-03-03T00:09:27.094Z,100017.94
2024-03-03T00:11:53.968Z,100007.66
2024-03-03T00:14:22.479Z,100011.53
2024-03-03T00:16:49.373Z,100009.97
2024-03-03T00:19:16.371Z,100015.97
2024-03-03T00:21:43.431Z,100017.81
2024-03-03T00:24:10.347Z,100007.38
2024-03-03T00:26:37.272Z,100016.59
2024-03-03T00:29:05.630Z,100012.94
2024-03-03T00:31:32.657Z,100013.25
2024-03-03T00:33:59.672Z,100007.72
2024-03-03T00:36:26.638Z,100012.94
2024-03-03T00:38:53.659Z,100016.31
2024-03-03T00:41:20.668Z,100014.47
2024-03-03T00:43:47.450Z,100019.69
2024-03-03T00:46:14.436Z,100000.66
2024-03-03T00:48:41.551Z,100021.25
2024-03-03T00:51:08.439Z,100013.53
2024-03-03T00:53:35.377Z,100009.69
2024-03-03T00:56:02.390Z,100008.47
2024-03-03T00:58:29.207Z,100013.34
2024-03-03T01:00:56.084Z,100009.03
2024-03-03T01:03:22.987Z,99999.69
2024-03-03T01:05:49.936Z,99999.97
2024-03-03T01:08:17.036Z,100008.88
2024-03-03T01:10:43.890Z,100008.09
2024-03-03T01:13:10.809Z,100016.97
2024-03-03T01:15:37.810Z,100009.47
2024-03-03T01:18:05.177Z,100013.91
2024-03-03T01:20:32.072Z,100010.53
2024-03-03T01:22:58.902Z,100012.38
2024-03-03T01:25:25.874Z,100012.38
2024-03-03T01:27:53.503Z,100001.47
2024-03-03T01:30:20.573Z,100015.09
2024-03-03T01:32:47.524Z,100019.09
2024-03-03T01:35:14.468Z,100016.28
2024-03-03T01:37:41.336Z,100013.22
2024-03-03T01:40:08.867Z,100014.28
2024-03-03T01:42:35.749Z,100012.25
2024-03-03T01:45:03.222Z,100005.81
2024-03-03T01:47:30.242Z,100011.03
2024-03-03T01:49:59.289Z,100014.22
2024-03-03T01:52:30.010Z,100018.66
2024-03-03T01:54:57.949Z,100017.91
2024-03-03T01:57:25.335Z,100018.97
2024-03-03T01:59:53.544Z,100020.53
2024-03-03T02:02:20.541Z,100017.16
2024-03-03T02:04:48.948Z,100027.56
2024-03-03T02:07:15.911Z,100025.25
2024-03-03T02:09:45.927Z,100023.69
2024-03-03T02:12:13.737Z,100021.41
2024-03-03T02:14:40.773Z,100025.06
2024-03-03T02:17:07.683Z,100017.53
2024-03-03T02:19:35.743Z,100018.72
2024-03-03T02:22:02.833Z,100015.78
2024-03-03T02:24:29.721Z,100004.22
2024-03-03T02:26:57.728Z,99999.72
2024-03-03T02:29:25.087Z,100007.63
2024-03-03T02:31:51.932Z,99999.47
2024-03-03T02:34:18.853Z,100002.47
2024-03-03T02:36:46.884Z,100000.16
2024-03-03T02:39:14.224Z,100006.44
2024-03-03T02:41:41.420Z,100007.78
2024-03-03T02:44:08.281Z,100007.59
2024-03-03T02:46:35.254Z,100008.69
2024-03-03T02:49:02.992Z,100014.19
2024-03-03T02:51:29.991Z,100014.47
2024-03-03T02:53:56.844Z,100015.81
2024-03-03T02:56:23.696Z,100017.19
2024-03-03T02:58:50.569Z,100027.59
2024-03-03T03:01:17.637Z,100013.03
2024-03-03T03:03:44.600Z,100014.09
2024-03-03T03:06:11.398Z,100016.19
2024-03-03T03:08:38.316Z,100014.97
2024-03-03T03:11:07.131Z,100012.34
2024-03-03T03:13:34.054Z,100009.00
2024-03-03T03:16:05.967Z,100011.41
2024-03-03T03:18:33.213Z,100021.81
2024-03-03T03:21:00.113Z,100008.03
2024-03-03T03:23:27.085Z,100011.19
2024-03-03T03:25:54.379Z,100011.81
2024-03-03T03:28:22.282Z,100013.63
2024-03-03T03:30:49.424Z,100011.31
2024-03-03T03:33:16.669Z,100011.88
2024-03-03T03:35:43.563Z,100032.84
2024-03-03T03:38:10.414Z,100028.75
2024-03-03T03:40:37.215Z,100015.53
2024-03-03T03:43:07.182Z,100020.06
2024-03-03T03:45:34.250Z,100023.25
2024-03-03T03:48:01.180Z,100017.09
2024-03-03T03:50:28.062Z,100028.56
2024-03-03T03:52:54.861Z,100029.63
2024-03-03T03:55:21.819Z,100031.44
2024-03-03T03:57:48.854Z,100026.81
2024-03-03T04:00:16.269Z,100030.28
2024-03-03T04:02:43.115Z,100034.44
2024-03-03T04:05:10.161Z,100029.78
2024-03-03T04:07:38.733Z,100022.47
2024-03-03T04:10:06.859Z,100019.09
2024-03-03T04:12:33.868Z,100026.03
2024-03-03T04:15:00.945Z,100025.47
2024-03-03T04:17:27.925Z,100027.50
2024-03-03T04:19:54.770Z,100031.63
2024-03-03T04:22:22.175Z,100030.09
2024-03-03T04:24:49.160Z,100022.78
2024-03-03T04:27:16.712Z,100026.16
2024-03-03T04:29:47.637Z,100024.59
2024-03-03T04:32:14.540Z,100030.59
2024-03-03T04:34:41.941Z,100026.44
2024-03-03T04:37:09.229Z,100027.03
2024-03-03T04:39:36.964Z,100035.69
2024-03-03T04:42:04.819Z,100042.78
2024-03-03T04:44:32.072Z,100042.41
2024-03-03T04:46:59.295Z,100037.00
2024-03-03T04:49:26.329Z,100037.28
2024-03-03T04:51:53.422Z,100044.91
2024-03-03T04:54:20.415Z,100051.72
2024-03-03T04:56:47.301Z,100053.06
2024-03-03T04:59:14.227Z,100054.91
2024-03-03T05:01:43.430Z,100070.03
2024-03-03T05:04:11.501Z,100076.09
2024-03-03T05:06:45.948Z,100070.88
2024-03-03T05:09:13.299Z,100066.72
2024-03-03T05:11:40.129Z,100063.63
2024-03-03T05:14:07.031Z,100074.31
2024-03-03T05:16:33.808Z,100059.78
2024-03-03T05:19:00.751Z,100060.84
2024-03-03T05:21:27.687Z,100058.81
2024-03-03T05:23:54.496Z,100069.50
2024-03-03T05:26:21.429Z,100065.63
2024-03-03T05:28:48.282Z,100070.84
2024-03-03T05:31:15.286Z,100076.81
2024-03-03T05:33:42.501Z,100075.81
2024-03-03T05:36:09.380Z,100083.13
2024-03-03T05:38:36.269Z,100076.69
2024-03-03T05:41:03.316Z,100082.94
2024-03-03T05:43:30.212Z,100096.19
2024-03-03T05:45:57.109Z,100102.75
2024-03-03T05:48:24.011Z,100113.41
2024-03-03T05:50:50.944Z,100107.72
2024-03-03T05:53:17.869Z,100113.22
2024-03-03T05:55:44.697Z,100120.22
2024-03-03T05:58:11.707Z,100120.22
2024-03-03T06:00:39.061Z,100124.41
2024-03-03T06:03:06.366Z,100117.34
2024-03-03T06:05:33.262Z,100125.66
2024-03-03T06:08:00.187Z,100132.41
2024-03-03T06:10:27.174Z,100139.91
2024-03-03T06:12:54.026Z,100147.22
2024-03-03T06:15:20.922Z,100138.91
2024-03-03T06:17:47.867Z,100147.78
2024-03-03T06:20:14.780Z,100144.59
2024-03-03T06:22:41.679Z,100143.00
2024-03-03T06:25:09.746Z,100141.94
2024-03-03T06:27:36.628Z,100139.84
2024-03-03T06:30:05.102Z,100145.53
2024-03-03T06:32:32.186Z,100151.44
2024-03-03T06:34:59.112Z,100149.06
2024-03-03T06:37:26.029Z,100153.91
2024-03-03T06:39:53.029Z,100157.00
2024-03-03T06:42:21.179Z,100155.63
2024-03-03T06:44:48.067Z,100151.91
2024-03-03T06:47:14.992Z,100163.28
2024-03-03T06:49:41.841Z,100156.47
2024-03-03T06:52:08.752Z,100163.22
2024-03-03T06:54:35.675Z,100151.69
2024-03-03T06:57:02.588Z,100157.88
2024-03-03T06:59:29.484Z,100163.06
2024-03-03T07:01:56.641Z,100155.53
2024-03-03T07:04:26.761Z,100159.97
2024-03-03T07:06:54.215Z,100165.75
2024-03-03T07:09:24.248Z,100169.41
2024-03-03T07:11:56.174Z,100170.44
2024-03-03T07:14:25.148Z,100168.44
2024-03-03T07:16:52.351Z,100175.75
2024-03-03T07:19:19.638Z,100179.38
2024-03-03T07:21:46.883Z,100185.06
2024-03-03T07:24:13.773Z,100192.41
2024-03-03T07:26:40.887Z,100197.91
2024-03-03T07:29:09.472Z,100204.41
2024-03-03T07:31:37.321Z,100196.88
2024-03-03T07:34:05.125Z,100202.09
2024-03-03T07:36:32.200Z,100205.75
2024-03-03T07:38:59.194Z,100202.09
2024-03-03T07:41:26.067Z,100215.31
2024-03-03T07:43:53.642Z,100217.38
2024-03-03T07:46:20.632Z,100213.91
2024-03-03T07:48:47.820Z,100229.94
2024-03-03T07:51:15.131Z,100223.03
2024-03-03T07:53:41.983Z,100229.44
2024-03-03T07:56:10.194Z,100226.28
2024-03-03T07:58:38.584Z,100236.03
2024-03-03T08:01:06.526Z,100236.91
2024-03-03T08:03:34.755Z,100238.91
2024-03-03T08:06:02.120Z,100236.44
2024-03-03T08:08:29.199Z,100232.09
2024-03-03T08:10:56.102Z,100231.16
2024-03-03T08:13:23.067Z,100234.66
2024-03-03T08:15:50.106Z,100237.16
2024-03-03T08:18:17.105Z,100238.09
2024-03-03T08:20:44.201Z,100241.41
2024-03-03T08:23:11.182Z,100234.28
2024-03-03T08:25:38.138Z,100229.44
2024-03-03T08:28:07.114Z,100225.56
2024-03-03T08:30:34.257Z,100233.47
2024-03-03T08:33:01.349Z,100220.69
2024-03-03T08:35:28.250Z,100223.19
2024-03-03T08:37:56.023Z,100218.66
2024-03-03T08:40:23.254Z,100211.31
2024-03-03T08:42:50.422Z,100205.47
2024-03-03T08:45:17.794Z,100200.63
2024-03-03T08:47:45.257Z,100191.81
2024-03-03T08:50:12.530Z,100176.50
2024-03-03T08:52:40.373Z,100167.47
2024-03-03T08:55:07.937Z,100175.06
2024-03-03T08:57:34.872Z,100170.84
2024-03-03T09:00:02.967Z,100166.69
2024-03-03T09:02:29.897Z,100179.97
2024-03-03T09:04:58.147Z,100205.41
2024-03-03T09:07:25.404Z,100212.97
2024-03-03T09:09:52.555Z,100211.16
2024-03-03T09:12:19.507Z,100209.16
2024-03-03T09:14:46.438Z,100219.00
2024-03-03T09:17:13.450Z,100226.56
2024-03-03T09:19:40.500Z,100228.13
2024-03-03T09:22:07.648Z,100230.44
2024-03-03T09:24:34.586Z,100231.97
2024-03-03T09:27:01.458Z,100226.16
2024-03-03T09:29:28.549Z,100237.53
2024-03-03T09:31:55.727Z,100246.63
2024-03-03T09:34:23.748Z,100245.56
2024-03-03T09:36:51.203Z,100250.78
2024-03-03T09:39:18.555Z,100247.88
2024-03-03T09:41:45.722Z,100259.59
2024-03-03T09:44:19.121Z,100264.38
2024-03-03T09:46:49.679Z,100270.41
2024-03-03T09:49:18.673Z,100261.66
2024-03-03T09:51:47.152Z,100263.63
2024-03-03T09:54:19.856Z,100268.91
2024-03-03T09:56:49.013Z,100275.97
2024-03-03T09:59:16.621Z,100281.66
2024-03-03T10:01:54.226Z,100280.56
2024-03-03T10:04:23.596Z,100281.56
2024-03-03T10:06:53.961Z,100283.19
2024-03-03T10:09:21.852Z,100284.84
2024-03-03T10:11:51.506Z,100282.69
2024-03-03T10:14:20.188Z,100279.06
2024-03-03T10:16:47.369Z,100284.31
2024-03-03T10:19:14.455Z,100286.34
2024-03-03T10:21:41.504Z,100288.38
2024-03-03T10:24:24.769Z,100289.19
2024-03-03T10:26:56.031Z,100289.03
2024-03-03T10:29:27.298Z,100285.66
2024-03-03T10:31:56.023Z,100289.50
2024-03-03T10:34:23.575Z,100270.19
2024-03-03T10:37:03.929Z,100276.88
2024-03-03T10:39:36.572Z,100271.56
2024-03-03T10:42:11.295Z,100273.44
2024-03-03T10:44:38.933Z,100272.31
2024-03-03T10:47:10.460Z,100276.00
2024-03-03T10:49:40.212Z,100271.34
2024-03-03T10:52:11.547Z,100268.41
2024-03-03T10:54:39.902Z,100265.44
2024-03-03T10:57:08.469Z,100269.03
2024-03-03T10:59:39.655Z,100268.56
2024-03-03T11:02:11.237Z,100274.34
2024-03-03T11:04:40.878Z,100276.00
2024-03-03T11:07:07.853Z,100280.28
2024-03-03T11:09:36.426Z,100282.44
2024-03-03T11:12:08.236Z,100282.75
2024-03-03T11:15:06.234Z,100278.38
2024-03-03T11:17:47.321Z,100276.34
2024-03-03T11:20:23.068Z,100268.16
2024-03-03T11:23:16.791Z,100265.09
2024-03-03T11:26:05.768Z,100266.75
2024-03-03T11:28:35.565Z,100264.69
2024-03-03T11:31:02.828Z,100262.63
2024-03-03T11:33:30.985Z,100273.34
2024-03-03T11:35:58.322Z,100266.34
2024-03-03T11:38:46.306Z,100259.53
2024-03-03T11:41:13.988Z,100263.69
2024-03-03T11:43:44.521Z,100264.22
2024-03-03T11:46:11.795Z,100253.53
2024-03-03T11:48:43.025Z,100250.00
2024-03-03T11:51:29.750Z,100240.56
2024-03-03T11:54:01.325Z,100235.09
2024-03-03T11:56:31.762Z,100240.78
2024-03-03T11:59:01.016Z,100244.63
2024-03-03T12:01:33.200Z,100247.63
2024-03-03T12:04:00.929Z,100242.88
2024-03-03T12:06:28.332Z,100233.34
2024-03-03T12:09:00.511Z,100233.34
2024-03-03T12:11:28.531Z,100237.28
2024-03-03T12:13:58.772Z,100248.47
2024-03-03T12:16:26.214Z,100247.38
2024-03-03T12:18:53.296Z,100242.13
2024-03-03T12:21:24.592Z,100242.00
2024-03-03T12:23:51.611Z,100238.59
2024-03-03T12:26:19.727Z,100238.72
2024-03-03T12:28:46.770Z,100232.66
2024-03-03T12:31:13.709Z,100230.56
2024-03-03T12:33:44.254Z,100228.28
2024-03-03T12:36:12.184Z,100232.00
2024-03-03T12:38:39.364Z,100223.88
2024-03-03T12:41:06.904Z,100229.53
2024-03-03T12:43:35.080Z,100233.25
2024-03-03T12:46:02.529Z,100227.97
2024-03-03T12:48:29.748Z,100228.31
2024-03-03T12:51:00.196Z,100226.16
2024-03-03T12:53:39.160Z,100219.91
2024-03-03T12:56:24.337Z,100215.88
2024-03-03T12:58:51.490Z,100208.56
2024-03-03T13:01:19.117Z,100216.84
2024-03-03T13:03:56.741Z,100213.56
2024-03-03T13:06:23.789Z,100217.03
2024-03-03T13:08:54.098Z,100220.91
2024-03-03T13:11:22.482Z,100226.84
2024-03-03T13:13:51.421Z,100225.47
2024-03-03T13:16:18.602Z,100235.94
2024-03-03T13:18:45.773Z,100235.53
2024-03-03T13:21:16.687Z,100231.34
2024-03-03T13:23:44.106Z,100232.88
2024-03-03T13:26:11.278Z,100233.56
2024-03-03T13:28:39.373Z,100233.97
2024-03-03T13:31:07.601Z,100240.59
2024-03-03T13:33:40.258Z,100237.53
2024-03-03T13:36:11.803Z,100246.69
2024-03-03T13:38:39.050Z,100243.88
2024-03-03T13:41:06.541Z,100242.72
2024-03-03T13:43:34.305Z,100234.72
2024-03-03T13:46:01.654Z,100241.22
2024-03-03T13:48:28.865Z,100235.41
2024-03-03T13:50:55.982Z,100240.34
2024-03-03T13:53:23.955Z,100243.22
2024-03-03T13:55:51.866Z,100234.25
2024-03-03T13:58:19.354Z,100231.34
2024-03-03T14:00:46.510Z,100232.38
2024-03-03T14:03:14.152Z,100250.91
2024-03-03T14:05:41.144Z,100243.63
2024-03-03T14:08:08.428Z,100249.06
2024-03-03T14:10:35.622Z,100254.69
2024-03-03T14:13:06.022Z,100253.75
2024-03-03T14:15:34.390Z,100250.91
2024-03-03T14:18:01.767Z,100245.56
2024-03-03T14:20:29.717Z,100244.88
2024-03-03T14:22:56.882Z,100243.50
2024-03-03T14:25:25.710Z,100248.16
2024-03-03T14:27:53.809Z,100257.06
2024-03-03T14:30:24.364Z,100255.28
2024-03-03T14:32:51.476Z,100258.34
2024-03-03T14:35:18.518Z,100259.78
2024-03-03T14:37:45.630Z,100260.56
2024-03-03T14:40:15.260Z,100267.84
2024-03-03T14:42:42.839Z,100270.50
2024-03-03T14:45:10.164Z,100262.75
2024-03-03T14:47:37.687Z,100269.13
2024-03-03T14:50:05.360Z,100263.75
2024-03-03T14:52:32.364Z,100268.16
2024-03-03T14:55:00.054Z,100270.81
2024-03-03T14:57:28.669Z,100277.28
2024-03-03T14:59:55.869Z,100279.28
2024-03-03T15:02:23.153Z,100282.00
2024-03-03T15:04:51.610Z,100286.41
2024-03-03T15:07:19.426Z,100290.78
2024-03-03T15:09:47.780Z,100293.53
2024-03-03T15:12:14.814Z,100291.09
2024-03-03T15:14:44.170Z,100290.47
2024-03-03T15:17:23.448Z,100298.88
2024-03-03T15:19:50.632Z,100296.47
2024-03-03T15:22:18.138Z,100295.16
2024-03-03T15:24:46.833Z,100300.59
2024-03-03T15:27:15.208Z,100303.00
2024-03-03T15:29:43.701Z,100313.69
2024-03-03T15:32:11.460Z,100316.19
2024-03-03T15:34:38.827Z,100314.97
2024-03-03T15:37:06.911Z,100317.63
2024-03-03T15:39:37.312Z,100317.63
2024-03-03T15:42:06.925Z,100314.97
2024-03-03T15:44:34.542Z,100320.25
2024-03-03T15:47:02.099Z,100315.66
2024-03-03T15:49:30.409Z,100317.34
2024-03-03T15:51:57.758Z,100322.16
2024-03-03T15:54:24.643Z,100327.66
2024-03-03T15:56:51.751Z,100324.88
2024-03-03T15:59:18.742Z,100324.00
2024-03-03T16:01:46.222Z,100324.19
2024-03-03T16:04:13.237Z,100333.78
2024-03-03T16:06:40.120Z,100334.00
2024-03-03T16:09:08.081Z,100339.13
2024-03-03T16:11:35.588Z,100340.41
2024-03-03T16:14:02.544Z,100341.06
2024-03-03T16:16:30.916Z,100341.25
2024-03-03T16:18:57.961Z,100345.91
2024-03-03T16:21:28.063Z,100344.25
2024-03-03T16:23:58.038Z,100345.97
2024-03-03T16:26:25.547Z,100345.69
2024-03-03T16:28:52.593Z,100349.28
2024-03-03T16:31:19.656Z,100358.09
2024-03-03T16:33:46.708Z,100360.59
2024-03-03T16:36:17.319Z,100355.19
2024-03-03T16:38:45.190Z,100366.34
2024-03-03T16:41:12.288Z,100355.25
2024-03-03T16:43:39.277Z,100362.22
2024-03-03T16:46:07.087Z,100359.00
2024-03-03T16:48:34.079Z,100362.56
2024-03-03T16:51:03.998Z,100358.22
2024-03-03T16:53:32.705Z,100361.47
2024-03-03T16:56:01.377Z,100367.53
2024-03-03T16:58:29.220Z,100370.63
2024-03-03T17:00:56.629Z,100369.25
2024-03-03T17:03:23.718Z,100376.19
2024-03-03T17:05:50.700Z,100375.63
2024-03-03T17:08:17.750Z,100383.19
2024-03-03T17:10:44.888Z,100389.22
2024-03-03T17:13:11.937Z,100396.00
2024-03-03T17:15:38.997Z,100403.13
2024-03-03T17:18:06.205Z,100409.44
2024-03-03T17:20:33.336Z,100409.75
2024-03-03T17:23:00.261Z,100414.19
2024-03-03T17:25:27.338Z,100424.66
2024-03-03T17:27:54.441Z,100421.25
2024-03-03T17:30:23.091Z,100425.09
2024-03-03T17:32:51.970Z,100422.94
2024-03-03T17:35:19.083Z,100424.47
2024-03-03T17:37:46.009Z,100424.00
2024-03-03T17:40:13.246Z,100431.53
2024-03-03T17:42:40.251Z,100431.84
2024-03-03T17:45:08.127Z,100441.38
2024-03-03T17:47:35.463Z,100446.44
2024-03-03T17:50:02.420Z,100445.22
2024-03-03T17:52:30.884Z,100447.34
2024-03-03T17:54:58.079Z,100449.03
2024-03-03T17:57:25.100Z,100457.00
2024-03-03T17:59:52.030Z,100452.97
2024-03-03T18:02:19.076Z,100461.25
2024-03-03T18:04:46.011Z,100474.03
2024-03-03T18:07:16.299Z,100466.59
2024-03-03T18:09:46.387Z,100461.97
2024-03-03T18:12:13.790Z,100465.31
2024-03-03T18:14:40.766Z,100473.75
2024-03-03T18:17:07.910Z,100481.25
2024-03-03T18:19:36.621Z,100484.56
2024-03-03T18:22:03.787Z,100496.53
2024-03-03T18:24:32.787Z,100498.28
2024-03-03T18:26:59.868Z,100498.72
2024-03-03T18:29:28.995Z,100499.91
2024-03-03T18:31:55.918Z,100504.47
2024-03-03T18:34:23.851Z,100505.94
2024-03-03T18:36:54.372Z,100507.69
2024-03-03T18:39:25.068Z,100508.38
2024-03-03T18:41:53.108Z,100513.25
2024-03-03T18:44:20.490Z,100515.66
2024-03-03T18:46:47.564Z,100525.91
2024-03-03T18:49:14.703Z,100522.53
2024-03-03T18:51:43.331Z,100532.69
2024-03-03T18:54:10.325Z,100534.22
2024-03-03T18:56:37.397Z,100535.03
2024-03-03T18:59:04.322Z,100532.09
2024-03-03T19:01:31.383Z,100531.03
2024-03-03T19:03:58.332Z,100537.31
2024-03-03T19:06:25.330Z,100541.00
2024-03-03T19:08:52.257Z,100541.28
2024-03-03T19:11:19.168Z,100545.28
2024-03-03T19:13:46.100Z,100548.94
2024-03-03T19:16:13.142Z,100547.19
2024-03-03T19:18:40.095Z,100551.19
2024-03-03T19:21:08.832Z,100555.72
2024-03-03T19:23:35.959Z,100557.63
2024-03-03T19:26:02.970Z,100562.44
2024-03-03T19:28:29.999Z,100567.28
2024-03-03T19:30:57.346Z,100575.50
2024-03-03T19:33:24.375Z,100570.63
2024-03-03T19:35:51.456Z,100578.06
2024-03-03T19:38:18.946Z,100583.94
2024-03-03T19:40:46.042Z,100579.66
2024-03-03T19:43:13.065Z,100586.78
2024-03-03T19:45:39.970Z,100600.22
2024-03-03T19:48:07.425Z,100600.56
2024-03-03T19:50:34.528Z,100601.69
2024-03-03T19:53:01.592Z,100605.69
2024-03-03T19:55:28.683Z,100608.66
2024-03-03T19:57:57.856Z,100615.50
2024-03-03T20:00:25.539Z,100618.19
2024-03-03T20:02:52.693Z,100618.25
2024-03-03T20:05:20.057Z,100626.94
2024-03-03T20:07:47.136Z,100623.09
2024-03-03T20:10:14.462Z,100633.31
2024-03-03T20:12:41.588Z,100637.25
2024-03-03T20:15:11.743Z,100641.47
2024-03-03T20:17:39.081Z,100644.09
2024-03-03T20:20:11.216Z,100649.56
2024-03-03T20:22:38.696Z,100650.34
2024-03-03T20:25:06.804Z,100651.41
2024-03-03T20:27:34.323Z,100653.44
2024-03-03T20:30:01.415Z,100655.78
2024-03-03T20:32:28.419Z,100654.72
2024-03-03T20:34:57.964Z,100655.22
2024-03-03T20:37:25.517Z,100656.00
2024-03-03T20:39:53.220Z,100661.97
2024-03-03T20:42:20.716Z,100663.25
2024-03-03T20:44:48.366Z,100665.56
2024-03-03T20:47:15.511Z,100666.84
2024-03-03T20:49:42.606Z,100669.75
2024-03-03T20:52:10.292Z,100672.34
2024-03-03T20:54:37.690Z,100679.38
2024-03-03T20:57:09.798Z,100671.06
2024-03-03T20:59:37.073Z,100672.41
2024-03-03T21:02:04.322Z,100666.44
2024-03-03T21:04:31.466Z,100676.34
2024-03-03T21:06:59.891Z,100681.34
2024-03-03T21:09:26.914Z,100682.19
2024-03-03T21:11:54.125Z,100691.59
2024-03-03T21:14:21.414Z,100697.34
2024-03-03T21:16:48.704Z,100702.06
2024-03-03T21:19:16.056Z,100709.63
2024-03-03T21:21:43.071Z,100710.94
2024-03-03T21:24:10.057Z,100721.63
2024-03-03T21:26:36.962Z,100723.50
2024-03-03T21:29:06.466Z,100729.00
2024-03-03T21:31:34.242Z,100726.69
2024-03-03T21:34:01.316Z,100725.38
2024-03-03T21:36:28.630Z,100735.31
2024-03-03T21:38:55.547Z,100734.03
2024-03-03T21:41:22.510Z,100729.34
2024-03-03T21:43:49.628Z,100734.88
2024-03-03T21:46:17.095Z,100728.66
2024-03-03T21:48:44.091Z,100737.25
2024-03-03T21:51:11.519Z,100732.63
2024-03-03T21:53:39.589Z,100742.53
2024-03-03T21:56:07.000Z,100740.75
2024-03-03T21:58:34.667Z,100744.63
2024-03-03T22:01:02.484Z,100755.31
2024-03-03T22:03:29.481Z,100756.38
2024-03-03T22:05:56.450Z,100757.69
2024-03-03T22:08:23.833Z,100756.91
2024-03-03T22:10:51.004Z,100765.00
2024-03-03T22:13:19.041Z,100766.03
2024-03-03T22:15:46.557Z,100770.75
2024-03-03T22:18:13.735Z,100771.28
2024-03-03T22:20:40.703Z,100774.16
2024-03-03T22:23:08.990Z,100771.81
2024-03-03T22:25:35.995Z,100779.38
2024-03-03T22:28:03.219Z,100775.75
2024-03-03T22:30:30.185Z,100767.44
2024-03-03T22:32:57.238Z,100770.81
2024-03-03T22:35:24.226Z,100763.56
2024-03-03T22:37:51.144Z,100758.38
2024-03-03T22:40:18.214Z,100757.34
2024-03-03T22:42:45.280Z,100757.88
2024-03-03T22:45:13.257Z,100761.31
2024-03-03T22:47:40.266Z,100763.66
2024-03-03T22:50:08.839Z,100765.78
2024-03-03T22:52:35.853Z,100764.78
2024-03-03T22:55:02.922Z,100774.66
2024-03-03T22:57:29.806Z,100770.53
2024-03-03T22:59:56.669Z,100785.38
2024-03-03T23:02:23.538Z,100791.91
2024-03-03T23:04:52.424Z,100794.25
2024-03-03T23:07:20.928Z,100797.91
2024-03-03T23:09:47.947Z,100801.56
2024-03-03T23:12:14.820Z,100802.31
2024-03-03T23:14:41.954Z,100801.28
2024-03-03T23:17:08.963Z,100799.72
2024-03-03T23:19:35.899Z,100798.19
2024-03-03T23:22:04.041Z,100798.19
2024-03-03T23:24:30.971Z,100809.88
2024-03-03T23:26:58.015Z,100809.59
2024-03-03T23:29:24.959Z,100820.81
2024-03-03T23:31:51.870Z,100823.13
2024-03-03T23:34:18.938Z,100836.94
2024-03-03T23:36:46.682Z,100833.00
2024-03-03T23:39:13.726Z,100832.50
2024-03-03T23:41:41.034Z,100833.78
2024-03-03T23:44:07.868Z,100836.13
2024-03-03T23:46:34.806Z,100839.25
2024-03-03T23:49:01.821Z,100848.59
2024-03-03T23:51:28.776Z,100855.34
2024-03-03T23:53:55.689Z,100869.13
2024-03-03T23:56:22.571Z,100872.50
2024-03-03T23:58:50.447Z,100864.69
